createdAt,value
2023-01-25T00:03:53.823Z,86.09
2023-01-25T00:09:24.073Z,85.91
2023-01-25T00:14:38.849Z,85.99
2023-01-25T00:19:59.964Z,86.27
2023-01-25T00:25:46.731Z,86.35
2023-01-25T00:31:03.196Z,86.27
2023-01-25T00:37:15.727Z,86.17
2023-01-25T00:43:10.890Z,86.25
2023-01-25T00:48:39.023Z,86.36
2023-01-25T00:53:54.839Z,86.46
2023-01-25T00:59:44.382Z,86.54
2023-01-25T01:05:36.606Z,86.68
2023-01-25T01:10:45.278Z,86.83
2023-01-25T01:16:14.182Z,86.85
2023-01-25T01:21:39.288Z,86.94
2023-01-25T01:27:21.697Z,86.96
2023-01-25T01:32:35.536Z,87.00
2023-01-25T01:38:12.981Z,86.76
2023-01-25T01:43:55.628Z,87.01
2023-01-25T01:49:26.916Z,87.11
2023-01-25T01:55:35.377Z,87.22
2023-01-25T02:01:20.874Z,87.35
2023-01-25T02:07:37.447Z,87.48
2023-01-25T02:13:02.393Z,87.43
2023-01-25T02:24:19.201Z,87.86
2023-01-25T02:29:58.229Z,87.93
2023-01-25T02:36:15.014Z,87.92
2023-01-25T02:42:38.746Z,87.84
2023-01-25T02:48:10.925Z,87.82
2023-01-25T02:53:33.691Z,87.90
2023-01-25T02:59:20.540Z,88.01
2023-01-25T03:04:42.286Z,88.01
2023-01-25T03:10:34.263Z,88.01
2023-01-25T03:15:42.871Z,88.09
2023-01-25T03:21:52.419Z,88.17
2023-01-25T03:27:11.315Z,88.04
2023-01-25T03:32:56.583Z,87.94
2023-01-25T03:38:43.137Z,87.78
2023-01-25T03:44:11.537Z,87.93
2023-01-25T03:49:28.041Z,87.78
2023-01-25T03:55:13.382Z,87.77
2023-01-25T04:00:38.728Z,87.86
2023-01-25T04:05:58.080Z,87.92
2023-01-25T04:11:06.125Z,88.01
2023-01-25T04:16:22.807Z,88.01
2023-01-25T04:21:25.903Z,88.10
2023-01-25T04:26:31.398Z,88.04
2023-01-25T04:31:34.395Z,88.10
2023-01-25T04:36:37.567Z,88.07
2023-01-25T04:42:18.888Z,88.01
2023-01-25T04:47:32.618Z,88.15
2023-01-25T04:52:35.882Z,88.18
2023-01-25T04:58:17.709Z,88.24
2023-01-25T05:03:38.244Z,88.14
2023-01-25T05:08:56.726Z,88.32
2023-01-25T05:13:59.943Z,88.44
2023-01-25T05:19:22.313Z,88.54
2023-01-25T05:24:43.396Z,88.63
2023-01-25T05:30:06.325Z,88.68
2023-01-25T05:35:35.417Z,88.72
2023-01-25T05:40:52.560Z,88.67
2023-01-25T05:46:21.482Z,88.69
2023-01-25T05:51:57.110Z,88.79
2023-01-25T05:57:42.748Z,88.67
2023-01-25T06:03:08.907Z,88.68
2023-01-25T06:08:32.381Z,88.64
2023-01-25T06:13:42.131Z,88.64
2023-01-25T06:18:51.151Z,88.66
2023-01-25T06:24:33.797Z,88.70
2023-01-25T06:29:42.288Z,88.60
2023-01-25T06:34:48.684Z,88.65
2023-01-25T06:39:57.366Z,88.67
2023-01-25T06:45:22.261Z,88.62
2023-01-25T06:50:32.465Z,88.54
2023-01-25T06:55:52.030Z,88.54
2023-01-25T07:01:27.324Z,88.54
2023-01-25T07:06:46.269Z,88.68
2023-01-25T07:11:58.034Z,88.63
2023-01-25T07:17:04.080Z,88.61
2023-01-25T07:22:19.920Z,88.53
2023-01-25T07:27:37.003Z,88.50
2023-01-25T07:32:40.112Z,88.56
2023-01-25T07:37:46.664Z,88.69
2023-01-25T07:42:56.433Z,88.73
2023-01-25T07:48:15.422Z,88.60
2023-01-25T07:53:30.222Z,88.60
2023-01-25T07:58:39.290Z,88.69
2023-01-25T08:03:44.250Z,88.74
2023-01-25T08:08:52.280Z,88.85
2023-01-25T08:13:57.822Z,88.96
2023-01-25T08:19:20.213Z,89.04
2023-01-25T08:24:25.966Z,89.01
2023-01-25T08:29:32.433Z,88.98
2023-01-25T08:34:52.446Z,89.04
2023-01-25T08:40:38.792Z,89.07
2023-01-25T08:46:18.158Z,89.03
2023-01-25T08:51:22.410Z,89.10
2023-01-25T08:56:25.690Z,89.08
2023-01-25T09:01:37.847Z,88.84
2023-01-25T09:07:21.581Z,88.78
2023-01-25T09:12:33.410Z,88.82
2023-01-25T09:18:08.183Z,89.02
2023-01-25T09:23:19.717Z,89.00
2023-01-25T09:28:38.745Z,89.03
2023-01-25T09:34:42.618Z,88.87
2023-01-25T09:39:51.837Z,88.75
2023-01-25T09:45:33.609Z,88.86
2023-01-25T09:51:25.218Z,88.64
2023-01-25T09:57:20.616Z,88.54
2023-01-25T10:03:35.289Z,88.46
2023-01-25T10:09:53.616Z,88.69
2023-01-25T10:15:34.650Z,88.63
2023-01-25T10:21:38.746Z,88.71
2023-01-25T10:27:02.200Z,88.71
2023-01-25T10:32:35.866Z,88.65
2023-01-25T10:37:59.086Z,88.62
2023-01-25T10:44:01.922Z,88.75
2023-01-25T10:50:01.039Z,88.61
2023-01-25T10:55:50.343Z,88.84
2023-01-25T11:01:07.281Z,88.77
2023-01-25T11:06:48.664Z,88.84
2023-01-25T11:11:59.142Z,88.76
2023-01-25T11:17:30.299Z,88.57
2023-01-25T11:22:37.041Z,88.52
2023-01-25T11:28:10.783Z,88.65
2023-01-25T11:33:52.539Z,88.64
2023-01-25T11:39:53.369Z,88.53
2023-01-25T11:46:18.638Z,88.36
2023-01-25T11:51:46.678Z,88.61
2023-01-25T11:57:10.868Z,88.61
2023-01-25T12:02:46.145Z,88.43
2023-01-25T12:08:33.241Z,88.32
2023-01-25T12:21:39.091Z,88.14
2023-01-25T12:28:03.372Z,88.00
2023-01-25T12:33:28.473Z,87.95
2023-01-25T12:38:59.087Z,88.11
2023-01-25T12:44:55.537Z,88.21
2023-01-25T12:50:33.270Z,88.22
2023-01-25T12:55:40.955Z,88.11
2023-01-25T13:01:49.107Z,88.19
2023-01-25T13:07:15.929Z,88.33
2023-01-25T13:12:23.923Z,88.39
2023-01-25T13:17:40.193Z,88.35
2023-01-25T13:23:33.341Z,88.31
2023-01-25T13:28:46.775Z,88.39
2023-01-25T13:34:03.219Z,88.57
2023-01-25T13:40:09.672Z,88.67
2023-01-25T13:45:21.456Z,88.66
2023-01-25T13:51:50.910Z,88.69
2023-01-25T13:57:12.801Z,88.79
2023-01-25T14:02:53.444Z,88.79
2023-01-25T14:08:17.360Z,88.57
2023-01-25T14:13:52.351Z,88.61
2023-01-25T14:19:32.084Z,88.65
2023-01-25T14:24:35.782Z,88.83
2023-01-25T14:29:44.825Z,88.88
2023-01-25T14:34:55.561Z,88.99
2023-01-25T14:40:12.063Z,88.88
2023-01-25T14:45:18.111Z,88.94
2023-01-25T14:50:32.479Z,88.95
2023-01-25T14:55:37.685Z,88.93
2023-01-25T15:00:41.176Z,88.88
2023-01-25T15:05:53.092Z,88.96
2023-01-25T15:11:38.896Z,88.93
2023-01-25T15:16:50.852Z,88.97
2023-01-25T15:22:27.071Z,89.03
2023-01-25T15:28:12.180Z,88.96
2023-01-25T15:33:44.354Z,88.97
2023-01-25T15:38:53.211Z,89.03
2023-01-25T15:44:47.460Z,89.07
2023-01-25T15:50:03.786Z,89.18
2023-01-25T15:55:32.494Z,89.14
2023-01-25T16:00:56.087Z,89.22
2023-01-25T16:06:49.499Z,89.25
2023-01-25T16:12:19.773Z,89.36
2023-01-25T16:18:09.613Z,89.35
2023-01-25T16:23:21.020Z,89.42
2023-01-25T16:28:49.296Z,89.68
2023-01-25T16:33:52.274Z,89.71
2023-01-25T16:39:46.244Z,89.68
2023-01-25T16:45:09.126Z,89.56
2023-01-25T16:50:35.686Z,89.61
2023-01-25T16:55:42.558Z,89.51
2023-01-25T17:00:51.581Z,89.50
2023-01-25T17:06:01.105Z,89.50
2023-01-25T17:12:24.295Z,89.62
2023-01-25T17:18:16.646Z,89.71
2023-01-25T17:23:19.767Z,89.76
2023-01-25T17:28:57.387Z,89.82
2023-01-25T17:34:22.032Z,89.91
2023-01-25T17:39:38.206Z,89.97
2023-01-25T17:45:01.566Z,89.86
2023-01-25T17:50:19.219Z,89.93
2023-01-25T17:55:57.901Z,89.99
2023-01-25T18:01:59.725Z,89.93
2023-01-25T18:07:05.483Z,90.01
2023-01-25T18:12:24.484Z,89.99
2023-01-25T18:18:18.082Z,90.04
2023-01-25T18:24:33.154Z,90.10
2023-01-25T18:30:17.265Z,90.06
2023-01-25T18:35:20.940Z,90.13
2023-01-25T18:40:31.206Z,90.09
2023-01-25T18:45:45.374Z,90.15
2023-01-25T18:50:51.711Z,90.24
2023-01-25T18:57:01.202Z,90.22
2023-01-25T19:02:16.866Z,90.14
2023-01-25T19:07:37.577Z,90.27
2023-01-25T19:12:49.679Z,90.46
2023-01-25T19:17:58.479Z,90.42
2023-01-25T19:23:25.565Z,90.38
2023-01-25T19:28:29.082Z,90.35
2023-01-25T19:33:45.003Z,90.32
2023-01-25T19:39:21.156Z,90.29
2023-01-25T19:44:54.995Z,90.35
2023-01-25T19:50:17.851Z,90.46
2023-01-25T19:55:31.861Z,90.61
2023-01-25T20:00:58.724Z,90.64
2023-01-25T20:06:12.361Z,90.69
2023-01-25T20:12:03.919Z,90.49
2023-01-25T20:17:51.634Z,90.54
2023-01-25T20:23:22.950Z,90.57
2023-01-25T20:29:14.045Z,90.61
2023-01-25T20:35:11.093Z,90.53
2023-01-25T20:40:59.598Z,90.44
2023-01-25T20:46:26.964Z,90.46
2023-01-25T20:52:17.790Z,90.56
2023-01-25T20:57:33.453Z,90.53
2023-01-25T21:03:30.633Z,90.61
2023-01-25T21:08:37.111Z,90.57
2023-01-25T21:13:46.812Z,90.59
2023-01-25T21:18:57.717Z,90.49
2023-01-25T21:24:14.541Z,90.50
2023-01-25T21:29:38.960Z,90.57
2023-01-25T21:34:49.294Z,90.60
2023-01-25T21:40:30.373Z,90.64
2023-01-25T21:46:25.409Z,90.57
2023-01-25T21:51:58.274Z,90.61
2023-01-25T21:57:15.297Z,90.67
2023-01-25T22:02:24.233Z,90.74
2023-01-25T22:08:18.291Z,90.72
2023-01-25T22:14:28.986Z,90.65
2023-01-25T22:20:12.452Z,90.75
2023-01-25T22:26:12.942Z,90.79
2023-01-25T22:31:58.384Z,90.78
2023-01-25T22:56:46.541Z,91.09
2023-01-25T23:03:02.583Z,91.04
2023-01-25T23:08:39.258Z,91.00
2023-01-25T23:14:31.756Z,90.93
2023-01-25T23:20:54.680Z,91.07
2023-01-25T23:26:12.105Z,91.14
2023-01-25T23:32:16.981Z,91.10
2023-01-25T23:37:38.536Z,91.04
2023-01-25T23:43:05.588Z,91.05
2023-01-25T23:48:55.265Z,91.04
2023-01-25T23:54:37.464Z,91.04
